Time;durP1;ratioP1;P1;durP2;ratioP2;P2;SDS_P1;SDS_P2;PMS_P1;PMS_P2;Temp;Humidity;BMP_temperature;BMP_pressure;BME280_temperature;BME280_humidity;BME280_pressure;Samples;Min_cycle;Max_cycle;Signal;HPM_P1;HPM_P2
2021/05/22 00:00:06;;;;;;;4.72;1.48;;;13.90;67.80;;;;;;5074442;28;20492;-62
2021/05/22 00:02:32;;;;;;;7.97;1.45;;;13.80;68.00;;;;;;5073678;28;20040;-62
2021/05/22 00:04:58;;;;;;;3.50;0.80;;;13.70;68.40;;;;;;5074375;28;20123;-62
2021/05/22 00:07:23;;;;;;;5.85;0.95;;;13.70;68.70;;;;;;5074219;28;20052;-62
2021/05/22 00:09:49;;;;;;;5.30;1.25;;;13.80;68.90;;;;;;5073136;28;20467;-62
2021/05/22 00:12:15;;;;;;;5.55;1.02;;;13.80;68.80;;;;;;5074439;28;20035;-62
2021/05/22 00:14:41;;;;;;;12.73;2.58;;;13.90;68.70;;;;;;5073431;28;20383;-62
2021/05/22 00:17:07;;;;;;;10.93;0.90;;;13.90;68.40;;;;;;5074046;28;20032;-62
2021/05/22 00:19:32;;;;;;;5.95;2.00;;;14.00;68.30;;;;;;5074164;28;20086;-62
2021/05/22 00:21:58;;;;;;;5.57;1.50;;;14.00;68.00;;;;;;5058925;28;20040;-62
2021/05/22 00:24:24;;;;;;;2.28;0.68;;;14.00;67.60;;;;;;5064184;28;20041;-62
2021/05/22 00:26:49;;;;;;;3.55;1.10;;;14.00;67.40;;;;;;5069556;28;20097;-62
2021/05/22 00:29:16;;;;;;;4.35;1.35;;;14.00;67.20;;;;;;5073204;28;20123;-62
2021/05/22 00:31:42;;;;;;;10.50;1.95;;;13.90;66.90;;;;;;5073968;28;20502;-62
2021/05/22 00:34:08;;;;;;;25.40;1.67;;;13.90;67.00;;;;;;5073618;28;20483;-62
2021/05/22 00:36:34;;;;;;;5.78;1.73;;;13.80;67.30;;;;;;5072830;28;20027;-62
2021/05/22 00:38:59;;;;;;;4.72;1.30;;;13.80;67.60;;;;;;5073757;28;20027;-62
2021/05/22 00:41:25;;;;;;;11.07;1.77;;;13.70;67.60;;;;;;5072741;28;20024;-62
2021/05/22 00:43:52;;;;;;;7.80;1.58;;;13.70;67.70;;;;;;5058495;28;20033;-62
2021/05/22 00:46:18;;;;;;;11.40;1.98;;;13.70;67.80;;;;;;5073591;28;20491;-62
2021/05/22 00:48:43;;;;;;;8.02;1.73;;;13.70;67.90;;;;;;5073396;28;20024;-62
2021/05/22 00:51:09;;;;;;;4.07;1.30;;;13.60;68.00;;;;;;5072709;28;20032;-62
2021/05/22 00:53:35;;;;;;;8.23;2.15;;;13.50;68.40;;;;;;5073417;28;20036;-62
2021/05/22 00:56:01;;;;;;;2.35;0.85;;;13.40;68.40;;;;;;5072092;28;20123;-62
2021/05/22 00:58:27;;;;;;;1.75;0.70;;;13.40;68.70;;;;;;5072828;28;20111;-62
2021/05/22 01:00:55;;;;;;;5.30;0.90;;;13.40;69.20;;;;;;5072901;28;20039;-62
2021/05/22 01:03:37;;;;;;;5.72;1.67;;;13.40;69.50;;;;;;5073247;28;20063;-62
2021/05/22 01:06:19;;;;;;;4.32;1.70;;;13.40;69.50;;;;;;5072000;28;20143;-62
2021/05/22 01:08:48;;;;;;;6.55;1.35;;;13.40;69.60;;;;;;5073194;28;20021;-62
2021/05/22 01:11:28;;;;;;;6.25;1.70;;;13.40;69.90;;;;;;5072254;28;20082;-62
2021/05/22 01:14:20;;;;;;;6.15;1.25;;;13.30;70.20;;;;;;5060540;28;20379;-62
2021/05/22 01:16:49;;;;;;;4.05;0.90;;;13.40;70.40;;;;;;5073072;28;20025;-62
2021/05/22 01:19:37;;;;;;;3.63;1.10;;;13.40;70.30;;;;;;5072406;28;20039;-62
2021/05/22 01:22:04;;;;;;;3.38;1.17;;;13.40;70.40;;;;;;5067850;28;20055;-62
2021/05/22 01:24:37;;;;;;;6.72;1.20;;;13.40;70.40;;;;;;5068982;28;20071;-62
2021/05/22 01:27:03;;;;;;;1.42;0.70;;;13.40;70.40;;;;;;5071725;28;20093;-62
2021/05/22 01:29:31;;;;;;;4.70;1.23;;;13.40;70.20;;;;;;5073031;28;20119;-62
2021/05/22 01:31:57;;;;;;;4.32;1.27;;;13.40;70.20;;;;;;5071993;28;20039;-62
2021/05/22 01:34:22;;;;;;;11.10;1.50;;;13.50;70.10;;;;;;5058538;28;20025;-62
2021/05/22 01:36:51;;;;;;;5.28;1.20;;;13.50;69.90;;;;;;5072794;28;20075;-62
2021/05/22 01:39:16;;;;;;;1.40;0.80;;;13.50;69.90;;;;;;5071715;28;20115;-62
2021/05/22 01:41:43;;;;;;;6.07;1.40;;;13.50;69.80;;;;;;5072868;28;20421;-62
2021/05/22 01:44:11;;;;;;;3.35;0.90;;;13.60;69.80;;;;;;5072798;28;20044;-62
2021/05/22 01:46:41;;;;;;;3.10;0.95;;;13.60;69.70;;;;;;5071888;28;20070;-62
2021/05/22 01:49:06;;;;;;;4.47;0.85;;;13.60;69.40;;;;;;5072821;28;20051;-62
2021/05/22 01:51:32;;;;;;;2.20;0.80;;;13.70;69.30;;;;;;5072089;28;20020;-62
2021/05/22 01:54:10;;;;;;;9.27;1.70;;;13.70;69.20;;;;;;5072098;28;20060;-62
2021/05/22 01:56:37;;;;;;;10.80;1.55;;;13.70;69.00;;;;;;5072271;28;20033;-62
2021/05/22 01:59:03;;;;;;;7.28;1.40;;;13.70;68.80;;;;;;5073025;28;20387;-62
2021/05/22 02:01:29;;;;;;;7.22;1.00;;;13.70;68.60;;;;;;5071799;28;20029;-62
2021/05/22 02:03:59;;;;;;;1.13;0.55;;;13.70;68.60;;;;;;5072538;28;20044;-62
2021/05/22 02:06:28;;;;;;;6.13;1.55;;;13.60;68.60;;;;;;5071195;28;20056;-62
2021/05/22 02:09:00;;;;;;;5.13;1.20;;;13.60;68.70;;;;;;5072012;28;20024;-62
2021/05/22 02:11:28;;;;;;;4.57;1.63;;;13.60;68.80;;;;;;5072639;28;20048;-62
2021/05/22 02:13:58;;;;;;;5.10;1.52;;;13.60;68.90;;;;;;5071070;28;20408;-62
2021/05/22 02:16:27;;;;;;;13.65;1.17;;;13.50;69.10;;;;;;5071727;28;20032;-62
2021/05/22 02:18:55;;;;;;;3.35;1.17;;;13.60;69.30;;;;;;5072100;28;20033;-62
2021/05/22 02:21:26;;;;;;;2.25;0.60;;;13.50;69.30;;;;;;5071781;28;20089;-62
2021/05/22 02:23:52;;;;;;;2.92;0.90;;;13.50;69.30;;;;;;5072204;28;20036;-62
2021/05/22 02:26:20;;;;;;;3.97;2.17;;;13.50;69.40;;;;;;5072476;28;20491;-62
2021/05/22 02:28:48;;;;;;;1.83;0.88;;;13.50;69.50;;;;;;5071492;28;20043;-62
2021/05/22 02:31:17;;;;;;;4.28;1.60;;;13.60;69.50;;;;;;5071926;28;20071;-62
2021/05/22 02:33:44;;;;;;;6.20;1.20;;;13.50;69.40;;;;;;5072439;28;20166;-62
2021/05/22 02:36:11;;;;;;;7.28;0.70;;;13.50;69.40;;;;;;5071339;28;20040;-62
2021/05/22 02:38:48;;;;;;;9.77;1.52;;;13.50;69.50;;;;;;5071960;28;20029;-62
2021/05/22 02:41:15;;;;;;;4.75;0.85;;;13.50;70.20;;;;;;5072083;28;20035;-62
2021/05/22 02:43:46;;;;;;;4.30;1.13;;;13.50;69.70;;;;;;5070311;28;20036;-62
2021/05/22 02:46:14;;;;;;;6.43;1.10;;;13.40;69.80;;;;;;5071912;28;20020;-62
2021/05/22 02:48:41;;;;;;;1.92;1.05;;;13.40;70.00;;;;;;5072210;28;20033;-62
2021/05/22 02:51:10;;;;;;;5.38;1.55;;;13.40;70.00;;;;;;5071109;28;20644;-62
2021/05/22 02:53:37;;;;;;;4.43;1.10;;;13.40;70.10;;;;;;5072009;28;20039;-62
2021/05/22 02:56:05;;;;;;;1.63;0.88;;;13.40;70.20;;;;;;5071974;28;20086;-62
2021/05/22 02:58:35;;;;;;;4.60;0.80;;;13.40;70.30;;;;;;5071462;28;20107;-62
2021/05/22 03:01:02;;;;;;;2.35;1.30;;;13.40;70.50;;;;;;5071776;28;20029;-62
2021/05/22 03:03:29;;;;;;;4.15;0.75;;;13.40;70.50;;;;;;5071484;28;20032;-62
2021/05/22 03:05:56;;;;;;;5.75;1.02;;;13.40;70.70;;;;;;5075468;28;20135;-62
2021/05/22 03:08:21;;;;;;;3.47;0.82;;;13.30;70.80;;;;;;5075243;28;20024;-62
2021/05/22 03:10:47;;;;;;;2.47;0.77;;;13.40;71.00;;;;;;5074739;28;20024;-62
2021/05/22 03:13:13;;;;;;;3.10;0.75;;;13.30;71.10;;;;;;5075447;28;20020;-62
2021/05/22 03:15:38;;;;;;;1.42;0.70;;;13.30;71.40;;;;;;5075487;28;20038;-62
2021/05/22 03:18:04;;;;;;;3.42;1.15;;;13.30;71.60;;;;;;5074516;28;20071;-62
2021/05/22 03:20:30;;;;;;;2.28;0.75;;;13.30;71.80;;;;;;5075200;28;20033;-62
2021/05/22 03:22:55;;;;;;;4.47;0.93;;;13.20;71.90;;;;;;5075326;28;20108;-62
2021/05/22 03:25:21;;;;;;;6.38;1.98;;;13.20;72.00;;;;;;5074062;28;20396;-62
2021/05/22 03:27:47;;;;;;;3.95;1.23;;;13.20;72.00;;;;;;5075108;28;20115;-62
2021/05/22 03:30:13;;;;;;;3.60;1.48;;;13.30;72.10;;;;;;5075144;28;20043;-62
2021/05/22 03:32:38;;;;;;;3.47;1.27;;;13.20;72.00;;;;;;5074165;28;20016;-62
2021/05/22 03:35:05;;;;;;;0.57;0.50;;;13.20;72.20;;;;;;5075115;28;20483;-62
2021/05/22 03:37:31;;;;;;;5.55;1.75;;;13.20;72.30;;;;;;5075192;28;20033;-62
2021/05/22 03:39:56;;;;;;;7.15;1.27;;;13.20;72.40;;;;;;5074153;28;20039;-62
2021/05/22 03:42:22;;;;;;;5.78;0.73;;;13.20;72.50;;;;;;5074971;28;20033;-62
2021/05/22 03:44:48;;;;;;;2.72;0.60;;;13.10;72.80;;;;;;5074974;28;20035;-62
2021/05/22 03:47:14;;;;;;;0.85;0.75;;;13.10;72.90;;;;;;5074222;28;20063;-62
2021/05/22 03:49:39;;;;;;;1.55;0.80;;;13.10;73.00;;;;;;5074582;28;20059;-62
2021/05/22 03:52:05;;;;;;;6.97;0.95;;;13.10;73.10;;;;;;5074784;28;20036;-62
2021/05/22 03:54:31;;;;;;;2.33;0.77;;;13.20;73.10;;;;;;5073756;28;20032;-62
2021/05/22 03:56:56;;;;;;;5.18;0.95;;;13.10;73.20;;;;;;5074604;28;20029;-62
2021/05/22 03:59:22;;;;;;;3.28;1.08;;;13.20;73.50;;;;;;5074511;28;20036;-62
2021/05/22 04:01:48;;;;;;;2.63;0.95;;;13.20;73.30;;;;;;5074041;28;20099;-62
2021/05/22 04:04:14;;;;;;;4.90;1.00;;;13.10;73.40;;;;;;5074345;28;20075;-62
2021/05/22 04:06:39;;;;;;;4.85;0.80;;;13.10;73.40;;;;;;5073356;28;20037;-62
2021/05/22 04:09:06;;;;;;;3.35;0.75;;;13.20;73.50;;;;;;5074366;28;20131;-62
2021/05/22 04:11:31;;;;;;;2.10;0.98;;;13.10;73.50;;;;;;5074375;28;20051;-62
2021/05/22 04:13:57;;;;;;;3.58;0.60;;;13.10;73.50;;;;;;5073748;28;20020;-62
2021/05/22 04:16:23;;;;;;;4.03;1.30;;;13.10;73.50;;;;;;5073901;28;20035;-62
2021/05/22 04:18:48;;;;;;;0.60;0.45;;;13.10;73.50;;;;;;5072775;28;20029;-62
2021/05/22 04:21:14;;;;;;;2.28;0.80;;;13.20;73.70;;;;;;5073431;28;20128;-62
2021/05/22 04:23:40;;;;;;;3.10;1.10;;;13.10;73.80;;;;;;5073687;28;20115;-62
2021/05/22 04:26:06;;;;;;;1.00;0.73;;;13.10;73.80;;;;;;5073956;28;20082;-62
2021/05/22 04:28:32;;;;;;;2.38;0.68;;;13.10;74.00;;;;;;5073324;28;20032;-62
2021/05/22 04:30:57;;;;;;;2.53;1.00;;;13.00;74.00;;;;;;5073711;28;20467;-62
2021/05/22 04:33:23;;;;;;;9.80;1.02;;;13.10;74.20;;;;;;5074017;28;20033;-62
2021/05/22 04:35:49;;;;;;;3.60;1.00;;;13.10;74.40;;;;;;5072857;28;20047;-62
2021/05/22 04:38:14;;;;;;;2.75;0.85;;;13.00;74.80;;;;;;5073613;28;20083;-62
2021/05/22 04:40:40;;;;;;;1.90;0.98;;;13.00;74.90;;;;;;5073718;28;20028;-62
2021/05/22 04:43:06;;;;;;;1.25;0.60;;;12.90;75.00;;;;;;5073490;28;20479;-62
2021/05/22 04:45:32;;;;;;;4.53;1.05;;;12.80;75.30;;;;;;5073592;28;20047;-62
2021/05/22 04:47:57;;;;;;;1.90;1.00;;;12.90;75.40;;;;;;5073478;28;20096;-62
2021/05/22 04:50:26;;;;;;;8.52;1.38;;;12.90;75.60;;;;;;5072775;28;20028;-62
2021/05/22 04:52:52;;;;;;;3.35;1.15;;;12.80;75.70;;;;;;5073183;28;20078;-62
2021/05/22 04:55:17;;;;;;;2.67;1.00;;;12.80;75.80;;;;;;5073726;28;20028;-62
2021/05/22 04:57:43;;;;;;;10.85;1.25;;;12.80;76.10;;;;;;5072616;28;20028;-62
2021/05/22 05:00:09;;;;;;;1.58;0.95;;;12.80;76.00;;;;;;5073375;28;20031;-62
2021/05/22 05:02:35;;;;;;;5.38;1.00;;;12.80;76.00;;;;;;5073260;28;20059;-62
2021/05/22 05:05:01;;;;;;;3.63;0.60;;;12.80;76.00;;;;;;5072314;28;20453;-62
2021/05/22 05:07:27;;;;;;;2.10;1.15;;;12.80;76.00;;;;;;5072911;28;20052;-62
2021/05/22 05:09:52;;;;;;;3.10;1.13;;;12.80;76.00;;;;;;5072719;28;20028;-63
2021/05/22 05:12:18;;;;;;;4.57;0.82;;;12.80;76.10;;;;;;5072573;28;20033;-62
2021/05/22 05:14:44;;;;;;;4.00;1.15;;;12.80;76.20;;;;;;5072756;28;20044;-63
2021/05/22 05:17:10;;;;;;;6.55;1.40;;;12.80;76.20;;;;;;5071912;28;20064;-62
2021/05/22 05:19:36;;;;;;;3.58;1.23;;;12.80;76.30;;;;;;5073010;28;20048;-62
2021/05/22 05:22:02;;;;;;;2.55;1.00;;;12.80;76.50;;;;;;5072700;28;20020;-62
2021/05/22 05:24:28;;;;;;;5.13;1.40;;;12.70;76.70;;;;;;5071736;28;20548;-62
2021/05/22 05:26:54;;;;;;;5.15;1.50;;;12.70;76.90;;;;;;5066312;28;20082;-62
2021/05/22 05:29:19;;;;;;;5.50;0.88;;;12.80;77.20;;;;;;5069731;28;20028;-63
2021/05/22 05:31:45;;;;;;;4.93;0.90;;;12.70;77.40;;;;;;5071804;28;20025;-62
2021/05/22 05:34:11;;;;;;;5.32;1.13;;;12.70;77.60;;;;;;5056499;28;20036;-62
2021/05/22 05:36:37;;;;;;;1.92;1.02;;;12.60;77.70;;;;;;5053356;28;20039;-62
2021/05/22 05:39:07;;;;;;;1.55;0.98;;;12.60;77.90;;;;;;5053436;28;20046;-62
2021/05/22 05:41:32;;;;;;;5.28;1.02;;;12.50;78.20;;;;;;5053536;28;20375;-62
2021/05/22 05:43:58;;;;;;;1.17;1.08;;;12.60;78.50;;;;;;5053362;28;20029;-62
2021/05/22 05:46:24;;;;;;;4.72;1.38;;;12.50;78.60;;;;;;5052556;28;20040;-62
2021/05/22 05:48:50;;;;;;;1.13;0.63;;;12.50;78.70;;;;;;5053276;28;20032;-62
2021/05/22 05:51:15;;;;;;;4.20;0.90;;;12.50;78.90;;;;;;5071647;28;20020;-62
2021/05/22 05:53:41;;;;;;;3.97;1.50;;;12.50;78.80;;;;;;5070078;28;20111;-62
2021/05/22 05:56:07;;;;;;;5.78;1.20;;;12.50;78.80;;;;;;5085086;28;20017;-62
2021/05/22 05:58:33;;;;;;;1.70;0.73;;;12.60;78.80;;;;;;5071739;28;20082;-62
2021/05/22 06:00:59;;;;;;;3.65;1.30;;;12.60;78.80;;;;;;5066287;28;20029;-62
2021/05/22 06:03:26;;;;;;;4.93;1.83;;;12.60;78.90;;;;;;5058536;28;20024;-61
2021/05/22 06:05:52;;;;;;;2.85;0.88;;;12.60;79.00;;;;;;5062446;28;20439;-61
2021/05/22 06:08:19;;;;;;;4.47;1.10;;;12.60;79.10;;;;;;5064321;28;20017;-61
2021/05/22 06:10:46;;;;;;;2.92;1.10;;;12.60;79.30;;;;;;5064650;28;20504;-61
2021/05/22 06:13:20;;;;;;;5.45;1.65;;;12.50;79.40;;;;;;5062498;28;20469;-62
2021/05/22 06:15:49;;;;;;;2.65;1.38;;;12.50;79.60;;;;;;5065229;28;20047;-62
2021/05/22 06:18:15;;;;;;;3.42;1.23;;;12.50;79.70;;;;;;5062696;28;20025;-61
2021/05/22 06:20:41;;;;;;;3.30;1.55;;;12.50;79.80;;;;;;5066168;28;20376;-61
2021/05/22 06:23:06;;;;;;;4.10;1.40;;;12.50;79.90;;;;;;5060962;28;20064;-61
2021/05/22 06:25:32;;;;;;;4.25;1.23;;;12.50;80.00;;;;;;5066639;28;20068;-62
2021/05/22 06:27:58;;;;;;;7.88;1.20;;;12.40;80.10;;;;;;5062081;28;20116;-62
2021/05/22 06:30:24;;;;;;;1.92;1.45;;;12.50;80.30;;;;;;5064519;28;20472;-61
2021/05/22 06:32:49;;;;;;;2.38;1.05;;;12.50;80.40;;;;;;5072194;28;20400;-61
2021/05/22 06:35:15;;;;;;;3.47;1.13;;;12.40;80.60;;;;;;5071252;28;20028;-61
2021/05/22 06:37:41;;;;;;;2.85;1.30;;;12.40;80.90;;;;;;5071619;28;20058;-62
2021/05/22 06:40:07;;;;;;;6.13;1.23;;;12.40;81.10;;;;;;5074507;28;20056;-62
2021/05/22 06:42:34;;;;;;;5.43;1.60;;;12.30;81.30;;;;;;5074395;28;20028;-62
2021/05/22 06:45:08;;;;;;;4.55;1.27;;;12.30;81.40;;;;;;5075431;28;20040;-62
2021/05/22 06:47:34;;;;;;;2.58;1.00;;;12.30;81.60;;;;;;5067788;28;20021;-62
2021/05/22 06:49:59;;;;;;;1.92;1.00;;;12.30;82.00;;;;;;5074830;28;20028;-62
2021/05/22 06:52:25;;;;;;;4.88;1.30;;;12.30;82.30;;;;;;5075542;28;20021;-62
2021/05/22 06:54:51;;;;;;;9.93;1.38;;;12.30;82.40;;;;;;5069707;28;20464;-61
2021/05/22 06:57:17;;;;;;;2.08;1.00;;;12.30;82.70;;;;;;5074761;28;20460;-61
2021/05/22 06:59:43;;;;;;;2.20;1.10;;;12.30;82.80;;;;;;5075024;28;20521;-61
2021/05/22 07:02:08;;;;;;;1.48;0.90;;;12.30;82.90;;;;;;5068221;28;20016;-61
2021/05/22 07:04:34;;;;;;;5.32;1.27;;;12.30;83.10;;;;;;5062682;28;20025;-61
2021/05/22 07:07:00;;;;;;;5.00;1.60;;;12.30;83.20;;;;;;5066846;28;20045;-61
2021/05/22 07:09:25;;;;;;;3.65;1.60;;;12.30;83.50;;;;;;5074617;28;20476;-61
2021/05/22 07:11:52;;;;;;;1.70;1.20;;;12.30;83.70;;;;;;5073720;28;20113;-62
2021/05/22 07:14:18;;;;;;;1.80;1.20;;;12.30;83.90;;;;;;5074716;28;20436;-62
2021/05/22 07:16:43;;;;;;;3.40;1.30;;;12.30;84.00;;;;;;5073928;28;20051;-62
2021/05/22 07:19:09;;;;;;;0.70;0.68;;;12.20;84.00;;;;;;5074846;28;20065;-62
2021/05/22 07:21:37;;;;;;;2.78;1.00;;;12.30;84.30;;;;;;5074769;28;20027;-62
2021/05/22 07:24:06;;;;;;;6.22;1.10;;;12.20;84.30;;;;;;5073566;28;20464;-63
2021/05/22 07:26:32;;;;;;;1.98;1.20;;;12.30;84.40;;;;;;5074693;28;20482;-63
2021/05/22 07:28:58;;;;;;;2.10;1.02;;;12.20;84.50;;;;;;5068143;28;20032;-62
2021/05/22 07:31:23;;;;;;;2.15;1.13;;;12.30;84.80;;;;;;5073405;28;20032;-62
2021/05/22 07:33:51;;;;;;;1.77;1.02;;;12.20;84.90;;;;;;5073574;28;20021;-62
2021/05/22 07:36:18;;;;;;;2.63;0.98;;;12.20;85.10;;;;;;5067988;28;20038;-62
2021/05/22 07:38:44;;;;;;;8.65;0.95;;;12.20;85.30;;;;;;5072982;28;20032;-62
2021/05/22 07:41:10;;;;;;;5.57;0.98;;;12.30;85.30;;;;;;5073503;28;20020;-62
2021/05/22 07:43:36;;;;;;;2.03;0.98;;;12.30;85.20;;;;;;5060631;28;20032;-62
2021/05/22 07:46:01;;;;;;;3.22;0.70;;;12.30;85.10;;;;;;5070818;28;20036;-62
2021/05/22 07:48:27;;;;;;;2.92;0.80;;;12.30;85.20;;;;;;5073153;28;20025;-62
2021/05/22 07:50:53;;;;;;;1.52;0.77;;;12.40;85.20;;;;;;5070477;28;20146;-62
2021/05/22 07:53:20;;;;;;;1.23;0.90;;;12.40;85.30;;;;;;5054797;28;20100;-62
2021/05/22 07:55:46;;;;;;;0.70;0.65;;;12.40;85.40;;;;;;5053472;28;20078;-62
2021/05/22 07:58:15;;;;;;;0.73;0.73;;;12.40;85.60;;;;;;5054992;28;20024;-62
2021/05/22 08:00:41;;;;;;;1.40;1.10;;;12.40;85.60;;;;;;5054182;28;20047;-62
2021/05/22 08:03:07;;;;;;;0.90;0.88;;;12.40;85.60;;;;;;5057712;28;20490;-62
2021/05/22 08:05:32;;;;;;;0.82;0.70;;;12.50;85.80;;;;;;5066078;28;20037;-62
2021/05/22 08:07:58;;;;;;;1.10;0.70;;;12.50;86.50;;;;;;5062719;28;20025;-62
2021/05/22 08:10:24;;;;;;;1.45;0.80;;;12.50;86.00;;;;;;5059996;28;20486;-62
2021/05/22 08:12:49;;;;;;;0.93;0.50;;;12.60;86.10;;;;;;5057743;28;20023;-62
2021/05/22 08:15:15;;;;;;;0.10;0.10;;;12.60;86.10;;;;;;5056793;28;20078;-62
2021/05/22 08:17:41;;;;;;;0.68;0.68;;;12.70;86.10;;;;;;5055134;28;20048;-62
2021/05/22 08:20:07;;;;;;;0.40;0.40;;;12.70;86.00;;;;;;5068333;28;20458;-62
2021/05/22 08:22:34;;;;;;;0.73;0.52;;;12.70;86.00;;;;;;5069320;28;20032;-62
2021/05/22 08:25:00;;;;;;;0.80;0.63;;;12.70;85.90;;;;;;5068875;28;20032;-62
2021/05/22 08:27:25;;;;;;;0.85;0.52;;;12.80;85.90;;;;;;5055344;28;20489;-63
2021/05/22 08:29:51;;;;;;;0.77;0.68;;;12.80;86.60;;;;;;5055284;28;20043;-63
2021/05/22 08:32:17;;;;;;;0.70;0.68;;;12.80;85.90;;;;;;5066326;28;20483;-63
2021/05/22 08:34:42;;;;;;;2.33;0.82;;;12.80;86.00;;;;;;5051475;28;20108;-63
2021/05/22 08:37:11;;;;;;;0.75;0.75;;;12.80;86.10;;;;;;5061699;28;20040;-63
2021/05/22 08:39:43;;;;;;;1.80;1.08;;;12.90;86.30;;;;;;5068208;28;20032;-63
2021/05/22 08:42:11;;;;;;;3.30;1.23;;;12.80;86.50;;;;;;5066207;28;20028;-63
2021/05/22 08:44:38;;;;;;;0.77;0.77;;;12.90;86.60;;;;;;5067570;28;20044;-63
2021/05/22 08:47:04;;;;;;;0.68;0.65;;;12.90;86.70;;;;;;5067095;28;20382;-63
2021/05/22 08:49:41;;;;;;;6.10;1.33;;;13.00;86.70;;;;;;5068514;28;20040;-63
2021/05/22 08:52:12;;;;;;;1.48;1.08;;;13.00;86.70;;;;;;5067978;28;20558;-63
2021/05/22 08:54:39;;;;;;;1.42;0.93;;;13.00;86.90;;;;;;5068054;28;20060;-63
2021/05/22 08:57:06;;;;;;;1.55;1.13;;;13.00;87.00;;;;;;5065119;28;20020;-61
2021/05/22 08:59:33;;;;;;;3.03;1.60;;;13.00;87.00;;;;;;5066243;28;20530;-62
2021/05/22 09:02:01;;;;;;;1.58;1.17;;;13.00;87.20;;;;;;5061928;28;20475;-62
2021/05/22 09:04:27;;;;;;;5.70;1.38;;;13.10;87.50;;;;;;5063971;28;20062;-62
2021/05/22 09:07:04;;;;;;;1.48;1.10;;;13.10;87.50;;;;;;5065659;28;20127;-62
2021/05/22 09:09:42;;;;;;;2.72;1.60;;;13.20;87.70;;;;;;5068728;28;20071;-63
2021/05/22 09:12:09;;;;;;;4.55;1.60;;;13.10;87.60;;;;;;5066875;28;20020;-62
2021/05/22 09:14:51;;;;;;;2.92;1.70;;;13.20;87.70;;;;;;5068103;28;20063;-63
2021/05/22 09:17:17;;;;;;;6.35;2.13;;;13.20;87.70;;;;;;5068414;28;20039;-63
2021/05/22 09:19:43;;;;;;;6.20;2.03;;;13.20;87.70;;;;;;5068097;28;20389;-63
2021/05/22 09:22:28;;;;;;;3.00;1.75;;;13.20;87.60;;;;;;5068246;28;20033;-63
2021/05/22 09:25:04;;;;;;;2.10;1.00;;;13.30;87.60;;;;;;5058929;28;20102;-64
2021/05/22 09:27:36;;;;;;;0.85;0.82;;;13.30;87.60;;;;;;5068352;28;20027;-63
2021/05/22 09:30:17;;;;;;;6.53;1.95;;;13.30;87.50;;;;;;5060998;28;20108;-63
2021/05/22 09:32:44;;;;;;;6.72;1.27;;;13.40;87.60;;;;;;5062374;28;20507;-65
2021/05/22 09:35:11;;;;;;;5.15;1.83;;;13.40;88.20;;;;;;5059741;28;20033;-65
2021/05/22 09:37:43;;;;;;;3.75;1.60;;;13.40;87.50;;;;;;5062294;28;20025;-65
2021/05/22 09:40:10;;;;;;;3.85;1.60;;;13.40;87.60;;;;;;5061180;28;20032;-65
2021/05/22 09:42:40;;;;;;;3.72;1.77;;;13.50;87.70;;;;;;5055627;28;20078;-64
2021/05/22 09:45:22;;;;;;;5.05;1.60;;;13.50;88.00;;;;;;5058720;28;20044;-65
2021/05/22 09:47:48;;;;;;;1.15;1.02;;;13.50;88.10;;;;;;5063831;28;20538;-64
2021/05/22 09:50:33;;;;;;;5.47;2.15;;;13.50;88.40;;;;;;5054148;28;20041;-65
2021/05/22 09:53:00;;;;;;;3.92;1.80;;;13.50;88.60;;;;;;5051195;28;20033;-64
2021/05/22 09:55:26;;;;;;;2.65;1.20;;;13.50;88.70;;;;;;5048533;28;20380;-63
2021/05/22 09:57:55;;;;;;;3.03;1.48;;;13.60;88.70;;;;;;5062173;28;20036;-63
2021/05/22 10:00:26;;;;;;;4.18;1.60;;;13.60;88.60;;;;;;5062921;28;20028;-64
2021/05/22 10:02:57;;;;;;;3.50;1.90;;;13.60;88.80;;;;;;5069378;28;20120;-63
2021/05/22 10:05:26;;;;;;;2.63;1.45;;;13.60;88.80;;;;;;5066587;28;20071;-64
2021/05/22 10:07:54;;;;;;;4.07;1.65;;;13.60;88.40;;;;;;5057532;28;20048;-64
2021/05/22 10:10:22;;;;;;;4.07;1.92;;;13.60;88.10;;;;;;5056869;28;20044;-64
2021/05/22 10:12:48;;;;;;;6.57;2.10;;;13.50;88.10;;;;;;5058836;28;20033;-63
2021/05/22 10:15:16;;;;;;;3.92;1.35;;;13.50;88.00;;;;;;5072820;28;20090;-64
2021/05/22 10:17:42;;;;;;;3.83;1.60;;;13.60;87.80;;;;;;5066671;28;20520;-64
2021/05/22 10:20:09;;;;;;;3.00;1.73;;;13.60;87.70;;;;;;5074307;28;20021;-64
2021/05/22 10:22:35;;;;;;;5.75;1.45;;;13.60;88.20;;;;;;5075246;28;20040;-64
2021/05/22 10:25:07;;;;;;;8.00;1.90;;;13.70;87.70;;;;;;5074784;28;20051;-64
2021/05/22 10:27:34;;;;;;;4.63;1.50;;;13.70;87.70;;;;;;5074510;28;20032;-63
2021/05/22 10:30:02;;;;;;;5.13;1.40;;;13.70;87.50;;;;;;5069662;28;20047;-63
2021/05/22 10:32:28;;;;;;;5.47;1.55;;;13.70;87.50;;;;;;5067742;28;20111;-63
2021/05/22 10:34:54;;;;;;;5.60;1.73;;;13.70;87.10;;;;;;5065603;28;20033;-63
2021/05/22 10:37:43;;;;;;;3.95;1.83;;;13.70;86.60;;;;;;5059376;28;20029;-63
2021/05/22 10:40:10;;;;;;;3.80;1.65;;;13.80;86.60;;;;;;5067654;28;20135;-63
2021/05/22 10:42:36;;;;;;;5.53;2.05;;;13.80;86.80;;;;;;5063487;28;20086;-63
2021/05/22 10:45:28;;;;;;;5.82;2.17;;;13.80;86.50;;;;;;5063072;28;20394;-65
2021/05/22 10:47:55;;;;;;;3.17;1.92;;;13.80;86.20;;;;;;5064922;28;20059;-64
2021/05/22 10:50:41;;;;;;;3.30;1.58;;;13.80;85.90;;;;;;5053921;28;20033;-67
2021/05/22 10:53:29;;;;;;;4.55;1.70;;;13.90;85.90;;;;;;5055131;28;20040;-66
2021/05/22 10:56:09;;;;;;;6.05;1.02;;;13.90;85.90;;;;;;5055244;28;20575;-68
2021/05/22 10:58:39;;;;;;;2.17;1.33;;;13.90;85.90;;;;;;5056148;28;20110;-63
2021/05/22 11:01:26;;;;;;;3.83;1.58;;;13.90;86.20;;;;;;5060248;28;20033;-63
2021/05/22 11:06:42;;;;;;;4.22;1.83;;;13.90;86.20;;;;;;5054397;28;20542;-65
2021/05/22 11:09:27;;;;;;;4.22;1.50;;;13.90;86.20;;;;;;5056914;28;20071;-64
2021/05/22 11:12:20;;;;;;;6.43;1.83;;;14.00;86.10;;;;;;5058672;28;20050;-65
2021/05/22 11:14:48;;;;;;;3.63;2.15;;;14.00;86.00;;;;;;5052787;28;20036;-64
2021/05/22 11:17:20;;;;;;;2.17;1.38;;;14.00;86.10;;;;;;5054164;28;20037;-63
2021/05/22 11:20:12;;;;;;;4.25;1.90;;;14.10;86.00;;;;;;5055837;28;20029;-63
2021/05/22 11:22:48;;;;;;;5.70;2.00;;;14.10;86.10;;;;;;5055048;28;20518;-63
2021/05/22 11:25:15;;;;;;;5.03;2.15;;;14.20;86.20;;;;;;5054885;28;20086;-64
2021/05/22 11:30:45;;;;;;;4.15;1.20;;;14.20;85.50;;;;;;5070733;28;20028;-64
2021/05/22 11:33:27;;;;;;;2.38;1.30;;;14.30;85.20;;;;;;5058120;28;20032;-63
2021/05/22 11:35:56;;;;;;;3.65;1.55;;;14.30;85.20;;;;;;5073839;28;20017;-63
2021/05/22 11:38:22;;;;;;;6.57;1.33;;;14.30;84.80;;;;;;5073187;28;20033;-63
2021/05/22 11:40:48;;;;;;;8.00;1.85;;;14.30;84.70;;;;;;5072902;28;20032;-64
2021/05/22 11:43:23;;;;;;;2.30;1.20;;;14.30;84.40;;;;;;5072452;28;20396;-64
2021/05/22 11:45:54;;;;;;;2.15;1.38;;;14.30;84.10;;;;;;5071909;28;20072;-64
2021/05/22 11:48:29;;;;;;;2.10;1.20;;;14.30;83.60;;;;;;5070459;28;20419;-64
2021/05/22 11:50:57;;;;;;;2.63;1.10;;;14.30;83.50;;;;;;5064605;28;20028;-63
2021/05/22 11:53:28;;;;;;;6.22;1.25;;;14.40;83.30;;;;;;5069415;28;20448;-63
2021/05/22 11:55:58;;;;;;;2.25;1.60;;;14.40;82.90;;;;;;5064494;28;20037;-64
2021/05/22 11:58:25;;;;;;;4.93;1.30;;;14.40;82.90;;;;;;5068468;28;20020;-64
2021/05/22 12:00:53;;;;;;;3.30;1.23;;;14.40;82.50;;;;;;5068479;28;20040;-63
2021/05/22 12:03:27;;;;;;;3.70;1.38;;;14.50;82.60;;;;;;5071326;28;20028;-67
2021/05/22 12:05:55;;;;;;;5.88;1.38;;;14.40;82.50;;;;;;5067140;28;20505;-66
2021/05/22 12:08:32;;;;;;;1.13;1.00;;;14.50;82.50;;;;;;5068783;28;20025;-66
2021/05/22 12:11:19;;;;;;;2.85;1.35;;;14.50;82.10;;;;;;5072832;28;20471;-66
2021/05/22 12:13:53;;;;;;;2.53;1.33;;;14.50;81.90;;;;;;5070599;28;20020;-65
2021/05/22 12:16:18;;;;;;;7.15;1.55;;;14.60;81.80;;;;;;5067699;28;20219;-65
2021/05/22 12:18:44;;;;;;;2.70;1.25;;;14.60;81.80;;;;;;5067058;28;20148;-64
2021/05/22 12:21:10;;;;;;;6.20;1.40;;;14.50;81.50;;;;;;5070359;28;20543;-64
2021/05/22 12:23:36;;;;;;;3.20;1.35;;;14.50;81.70;;;;;;5068645;28;20032;-64
2021/05/22 12:26:06;;;;;;;1.90;1.40;;;14.50;81.90;;;;;;5052541;28;21529;-64
2021/05/22 12:28:32;;;;;;;2.90;1.48;;;14.60;82.20;;;;;;5063185;28;20094;-73
2021/05/22 12:30:59;;;;;;;1.88;1.40;;;14.50;82.10;;;;;;5065568;28;20451;-64
2021/05/22 12:33:26;;;;;;;2.72;1.50;;;14.50;82.40;;;;;;5064525;28;20039;-64
2021/05/22 12:36:03;;;;;;;2.63;1.42;;;14.60;82.60;;;;;;5060673;28;20804;-66
2021/05/22 12:38:39;;;;;;;2.88;1.73;;;14.60;82.30;;;;;;5066533;28;20035;-64
2021/05/22 12:41:07;;;;;;;5.10;2.00;;;14.60;82.00;;;;;;5065145;28;20021;-68
2021/05/22 12:43:50;;;;;;;3.33;1.58;;;14.60;82.00;;;;;;5064411;28;20048;-63
2021/05/22 12:46:46;;;;;;;2.65;1.38;;;14.60;82.30;;;;;;5063972;28;20043;-63
2021/05/22 12:49:15;;;;;;;4.72;1.45;;;14.50;82.60;;;;;;5062077;28;20043;-63
2021/05/22 12:51:44;;;;;;;2.63;1.33;;;14.50;83.20;;;;;;5062572;28;20037;-64
2021/05/22 12:54:29;;;;;;;2.28;1.73;;;14.50;83.40;;;;;;5061328;28;20130;-63
2021/05/22 12:57:10;;;;;;;5.32;2.20;;;14.60;83.60;;;;;;5064119;28;20131;-62